CheckWX is a tool to help pilots better visualize weather data.  It is not intended as a substitute for an official pre-flight weather briefing.

15:54:42 UTC

EGPN METAR
Dundee Airport
Dundee, United Kingdom
Current

35 mins ago

EGPN 211520Z 24020KT 9999 -RA FEW020 SCT030 09/07 Q0998
Observed
Feb-21 @ 15:20 UTC
Wind
  • 240° at 20 KTS
Visibility
10,000+ meters
Flight Rules
VFR
Conditions
Light Rain
Cloud Levels
  • Few at 2,000' AGL
  • Scattered at 3,000' AGL
Temperature
C / 48°F
Dewpoint
C / 45°F
Humidity
87%
Altimeter
29.47" Hg
Pressure
997.92 hPa
Previous

1 hour ago

EGPN 211450Z 24021KT 9999 VCSH FEW020 SCT030 09/07 Q0998
Observed
Feb-21 @ 14:50 UTC
Wind
  • 240° at 21 KTS
Visibility
10,000+ meters
Flight Rules
VFR
Cloud Levels
  • Few at 2,000' AGL
  • Scattered at 3,000' AGL
Temperature
C / 48°F
Dewpoint
C / 45°F
Humidity
87%
Altimeter
29.47" Hg
Pressure
997.92 hPa
Previous

2 hours ago

EGPN 211420Z 23021KT 9999 VCSH FEW020 SCT030 09/07 Q0998
Observed
Feb-21 @ 14:20 UTC
Wind
  • 230° at 21 KTS
Visibility
10,000+ meters
Flight Rules
VFR
Cloud Levels
  • Few at 2,000' AGL
  • Scattered at 3,000' AGL
Temperature
C / 48°F
Dewpoint
C / 45°F
Humidity
87%
Altimeter
29.47" Hg
Pressure
997.92 hPa